sensor_id;sensor_type;location;lat;lon;timestamp;P1;durP1;ratioP1;P2;durP2;ratioP2
76409;SDS011;65238;42.662;23.280;2023-05-07T00:00:04;15.75;;;9.90;;
76409;SDS011;65238;42.662;23.280;2023-05-07T00:02:32;15.25;;;9.52;;
76409;SDS011;65238;42.662;23.280;2023-05-07T00:04:58;12.38;;;8.95;;
76409;SDS011;65238;42.662;23.280;2023-05-07T00:07:23;16.85;;;9.25;;
76409;SDS011;65238;42.662;23.280;2023-05-07T00:09:49;19.83;;;9.52;;
76409;SDS011;65238;42.662;23.280;2023-05-07T00:12:14;13.77;;;8.90;;
76409;SDS011;65238;42.662;23.280;2023-05-07T00:14:40;16.25;;;9.52;;
76409;SDS011;65238;42.662;23.280;2023-05-07T00:17:05;17.33;;;9.40;;
76409;SDS011;65238;42.662;23.280;2023-05-07T00:19:31;13.43;;;7.75;;
76409;SDS011;65238;42.662;23.280;2023-05-07T00:21:56;17.67;;;8.73;;
76409;SDS011;65238;42.662;23.280;2023-05-07T00:24:23;12.35;;;7.32;;
76409;SDS011;65238;42.662;23.280;2023-05-07T00:26:48;11.25;;;7.93;;
76409;SDS011;65238;42.662;23.280;2023-05-07T00:29:14;11.93;;;7.90;;
76409;SDS011;65238;42.662;23.280;2023-05-07T00:31:39;10.32;;;7.50;;
76409;SDS011;65238;42.662;23.280;2023-05-07T00:34:05;12.77;;;8.25;;
76409;SDS011;65238;42.662;23.280;2023-05-07T00:36:31;14.90;;;8.65;;
76409;SDS011;65238;42.662;23.280;2023-05-07T00:38:56;19.00;;;8.23;;
76409;SDS011;65238;42.662;23.280;2023-05-07T00:41:23;12.00;;;7.50;;
76409;SDS011;65238;42.662;23.280;2023-05-07T00:43:48;13.52;;;7.70;;
76409;SDS011;65238;42.662;23.280;2023-05-07T00:46:16;12.40;;;7.78;;
76409;SDS011;65238;42.662;23.280;2023-05-07T00:48:42;13.85;;;8.43;;
76409;SDS011;65238;42.662;23.280;2023-05-07T00:51:07;14.32;;;7.75;;
76409;SDS011;65238;42.662;23.280;2023-05-07T00:53:34;13.80;;;7.15;;
76409;SDS011;65238;42.662;23.280;2023-05-07T00:55:59;8.93;;;6.80;;
76409;SDS011;65238;42.662;23.280;2023-05-07T00:58:25;13.77;;;7.32;;
76409;SDS011;65238;42.662;23.280;2023-05-07T01:00:51;10.07;;;6.90;;
76409;SDS011;65238;42.662;23.280;2023-05-07T01:03:16;10.73;;;6.78;;
76409;SDS011;65238;42.662;23.280;2023-05-07T01:05:42;9.43;;;6.50;;
76409;SDS011;65238;42.662;23.280;2023-05-07T01:08:08;12.02;;;6.70;;
76409;SDS011;65238;42.662;23.280;2023-05-07T01:10:34;12.32;;;6.75;;
76409;SDS011;65238;42.662;23.280;2023-05-07T01:12:59;14.02;;;6.70;;
76409;SDS011;65238;42.662;23.280;2023-05-07T01:15:25;10.88;;;6.75;;
76409;SDS011;65238;42.662;23.280;2023-05-07T01:17:50;13.80;;;7.82;;
76409;SDS011;65238;42.662;23.280;2023-05-07T01:20:17;14.75;;;7.38;;
76409;SDS011;65238;42.662;23.280;2023-05-07T01:22:43;12.48;;;7.65;;
76409;SDS011;65238;42.662;23.280;2023-05-07T01:25:08;11.05;;;6.93;;
76409;SDS011;65238;42.662;23.280;2023-05-07T01:27:34;12.48;;;7.43;;
76409;SDS011;65238;42.662;23.280;2023-05-07T01:30:01;13.95;;;7.60;;
76409;SDS011;65238;42.662;23.280;2023-05-07T01:32:40;13.02;;;7.57;;
76409;SDS011;65238;42.662;23.280;2023-05-07T01:35:10;10.32;;;7.63;;
76409;SDS011;65238;42.662;23.280;2023-05-07T01:37:37;13.40;;;7.78;;
76409;SDS011;65238;42.662;23.280;2023-05-07T01:40:03;12.15;;;6.63;;
76409;SDS011;65238;42.662;23.280;2023-05-07T01:42:29;11.48;;;6.72;;
76409;SDS011;65238;42.662;23.280;2023-05-07T01:44:55;9.80;;;5.78;;
76409;SDS011;65238;42.662;23.280;2023-05-07T01:47:21;11.73;;;6.75;;
76409;SDS011;65238;42.662;23.280;2023-05-07T01:49:46;12.55;;;6.38;;
76409;SDS011;65238;42.662;23.280;2023-05-07T01:52:12;11.75;;;6.22;;
76409;SDS011;65238;42.662;23.280;2023-05-07T01:54:38;11.68;;;6.80;;
76409;SDS011;65238;42.662;23.280;2023-05-07T01:57:03;9.23;;;6.30;;
76409;SDS011;65238;42.662;23.280;2023-05-07T01:59:29;9.65;;;6.35;;
76409;SDS011;65238;42.662;23.280;2023-05-07T02:01:54;13.52;;;7.07;;
76409;SDS011;65238;42.662;23.280;2023-05-07T02:04:19;11.95;;;6.57;;
76409;SDS011;65238;42.662;23.280;2023-05-07T02:06:45;10.35;;;6.55;;
76409;SDS011;65238;42.662;23.280;2023-05-07T02:09:11;10.20;;;7.13;;
76409;SDS011;65238;42.662;23.280;2023-05-07T02:11:36;10.30;;;6.72;;
76409;SDS011;65238;42.662;23.280;2023-05-07T02:14:01;12.05;;;6.57;;
76409;SDS011;65238;42.662;23.280;2023-05-07T02:16:27;11.00;;;6.70;;
76409;SDS011;65238;42.662;23.280;2023-05-07T02:18:52;12.65;;;6.60;;
76409;SDS011;65238;42.662;23.280;2023-05-07T02:21:18;12.15;;;6.53;;
76409;SDS011;65238;42.662;23.280;2023-05-07T02:23:43;11.80;;;7.20;;
76409;SDS011;65238;42.662;23.280;2023-05-07T02:26:08;10.82;;;6.60;;
76409;SDS011;65238;42.662;23.280;2023-05-07T02:28:34;9.30;;;6.75;;
76409;SDS011;65238;42.662;23.280;2023-05-07T02:31:03;8.57;;;6.38;;
76409;SDS011;65238;42.662;23.280;2023-05-07T02:33:28;13.23;;;6.85;;
76409;SDS011;65238;42.662;23.280;2023-05-07T02:35:54;9.15;;;6.40;;
76409;SDS011;65238;42.662;23.280;2023-05-07T02:38:19;9.73;;;6.40;;
76409;SDS011;65238;42.662;23.280;2023-05-07T02:40:45;10.05;;;6.25;;
76409;SDS011;65238;42.662;23.280;2023-05-07T02:43:10;11.65;;;6.82;;
76409;SDS011;65238;42.662;23.280;2023-05-07T02:45:35;11.85;;;6.53;;
76409;SDS011;65238;42.662;23.280;2023-05-07T02:48:04;10.32;;;6.38;;
76409;SDS011;65238;42.662;23.280;2023-05-07T02:50:30;9.60;;;6.43;;
76409;SDS011;65238;42.662;23.280;2023-05-07T02:52:57;12.82;;;6.78;;
76409;SDS011;65238;42.662;23.280;2023-05-07T02:55:23;12.80;;;6.45;;
76409;SDS011;65238;42.662;23.280;2023-05-07T02:57:48;11.68;;;6.35;;
76409;SDS011;65238;42.662;23.280;2023-05-07T03:00:14;9.73;;;6.38;;
76409;SDS011;65238;42.662;23.280;2023-05-07T03:02:41;12.60;;;6.90;;
76409;SDS011;65238;42.662;23.280;2023-05-07T03:05:06;9.13;;;6.32;;
76409;SDS011;65238;42.662;23.280;2023-05-07T03:07:32;9.60;;;6.45;;
76409;SDS011;65238;42.662;23.280;2023-05-07T03:09:58;16.38;;;7.35;;
76409;SDS011;65238;42.662;23.280;2023-05-07T03:12:23;10.32;;;6.60;;
76409;SDS011;65238;42.662;23.280;2023-05-07T03:14:49;9.73;;;6.70;;
76409;SDS011;65238;42.662;23.280;2023-05-07T03:17:14;10.60;;;7.15;;
76409;SDS011;65238;42.662;23.280;2023-05-07T03:19:41;11.55;;;6.60;;
76409;SDS011;65238;42.662;23.280;2023-05-07T03:22:06;12.50;;;6.72;;
76409;SDS011;65238;42.662;23.280;2023-05-07T03:24:31;8.70;;;5.82;;
76409;SDS011;65238;42.662;23.280;2023-05-07T03:26:57;16.45;;;6.68;;
76409;SDS011;65238;42.662;23.280;2023-05-07T03:29:22;10.45;;;6.90;;
76409;SDS011;65238;42.662;23.280;2023-05-07T03:31:48;13.38;;;8.15;;
76409;SDS011;65238;42.662;23.280;2023-05-07T03:34:13;10.52;;;7.00;;
76409;SDS011;65238;42.662;23.280;2023-05-07T03:36:39;11.90;;;6.82;;
76409;SDS011;65238;42.662;23.280;2023-05-07T03:39:04;11.90;;;6.85;;
76409;SDS011;65238;42.662;23.280;2023-05-07T03:41:30;13.50;;;7.55;;
76409;SDS011;65238;42.662;23.280;2023-05-07T03:43:55;11.15;;;7.00;;
76409;SDS011;65238;42.662;23.280;2023-05-07T03:46:20;12.43;;;6.35;;
76409;SDS011;65238;42.662;23.280;2023-05-07T03:48:46;11.73;;;7.80;;
76409;SDS011;65238;42.662;23.280;2023-05-07T03:51:11;10.27;;;6.93;;
76409;SDS011;65238;42.662;23.280;2023-05-07T03:53:36;13.38;;;7.18;;
76409;SDS011;65238;42.662;23.280;2023-05-07T03:56:02;12.68;;;7.38;;
76409;SDS011;65238;42.662;23.280;2023-05-07T03:58:27;12.43;;;7.93;;
76409;SDS011;65238;42.662;23.280;2023-05-07T04:00:53;14.38;;;7.50;;
76409;SDS011;65238;42.662;23.280;2023-05-07T04:03:18;11.38;;;7.78;;
76409;SDS011;65238;42.662;23.280;2023-05-07T04:05:43;15.07;;;7.78;;
76409;SDS011;65238;42.662;23.280;2023-05-07T04:08:09;16.33;;;8.10;;
76409;SDS011;65238;42.662;23.280;2023-05-07T04:10:35;14.52;;;7.28;;
76409;SDS011;65238;42.662;23.280;2023-05-07T04:13:00;15.10;;;7.43;;
76409;SDS011;65238;42.662;23.280;2023-05-07T04:15:25;9.52;;;7.45;;
76409;SDS011;65238;42.662;23.280;2023-05-07T04:17:51;13.52;;;8.32;;
76409;SDS011;65238;42.662;23.280;2023-05-07T04:20:16;12.13;;;8.30;;
76409;SDS011;65238;42.662;23.280;2023-05-07T04:22:42;10.02;;;7.15;;
76409;SDS011;65238;42.662;23.280;2023-05-07T04:25:08;12.57;;;7.47;;
76409;SDS011;65238;42.662;23.280;2023-05-07T04:27:34;14.05;;;7.28;;
76409;SDS011;65238;42.662;23.280;2023-05-07T04:30:00;12.02;;;7.53;;
76409;SDS011;65238;42.662;23.280;2023-05-07T04:32:27;11.05;;;6.82;;
76409;SDS011;65238;42.662;23.280;2023-05-07T04:34:54;15.82;;;7.38;;
76409;SDS011;65238;42.662;23.280;2023-05-07T04:37:20;11.73;;;7.40;;
76409;SDS011;65238;42.662;23.280;2023-05-07T04:39:46;13.07;;;7.80;;
76409;SDS011;65238;42.662;23.280;2023-05-07T04:42:14;12.32;;;7.13;;
76409;SDS011;65238;42.662;23.280;2023-05-07T04:44:40;14.75;;;8.32;;
76409;SDS011;65238;42.662;23.280;2023-05-07T04:47:05;11.88;;;7.75;;
76409;SDS011;65238;42.662;23.280;2023-05-07T04:49:31;11.63;;;8.73;;
76409;SDS011;65238;42.662;23.280;2023-05-07T04:51:56;12.68;;;8.45;;
76409;SDS011;65238;42.662;23.280;2023-05-07T04:54:22;15.07;;;8.95;;
76409;SDS011;65238;42.662;23.280;2023-05-07T04:56:47;13.13;;;8.85;;
76409;SDS011;65238;42.662;23.280;2023-05-07T04:59:12;15.10;;;8.75;;
76409;SDS011;65238;42.662;23.280;2023-05-07T05:01:38;14.68;;;9.43;;
76409;SDS011;65238;42.662;23.280;2023-05-07T05:04:03;16.50;;;8.52;;
76409;SDS011;65238;42.662;23.280;2023-05-07T05:06:29;11.57;;;8.10;;
76409;SDS011;65238;42.662;23.280;2023-05-07T05:08:54;11.10;;;8.38;;
76409;SDS011;65238;42.662;23.280;2023-05-07T05:11:20;11.82;;;8.43;;
76409;SDS011;65238;42.662;23.280;2023-05-07T05:13:46;15.07;;;8.52;;
76409;SDS011;65238;42.662;23.280;2023-05-07T05:16:14;14.00;;;9.27;;
76409;SDS011;65238;42.662;23.280;2023-05-07T05:18:39;12.65;;;8.65;;
76409;SDS011;65238;42.662;23.280;2023-05-07T05:21:05;14.65;;;9.23;;
76409;SDS011;65238;42.662;23.280;2023-05-07T05:23:30;12.13;;;8.70;;
76409;SDS011;65238;42.662;23.280;2023-05-07T05:25:56;11.68;;;8.50;;
76409;SDS011;65238;42.662;23.280;2023-05-07T05:28:22;13.10;;;8.40;;
76409;SDS011;65238;42.662;23.280;2023-05-07T05:30:48;12.60;;;8.75;;
76409;SDS011;65238;42.662;23.280;2023-05-07T05:33:14;14.10;;;8.85;;
76409;SDS011;65238;42.662;23.280;2023-05-07T05:35:39;15.82;;;8.25;;
76409;SDS011;65238;42.662;23.280;2023-05-07T05:38:05;17.20;;;9.27;;
76409;SDS011;65238;42.662;23.280;2023-05-07T05:40:30;16.90;;;8.32;;
76409;SDS011;65238;42.662;23.280;2023-05-07T05:42:56;18.95;;;9.00;;
76409;SDS011;65238;42.662;23.280;2023-05-07T05:45:21;14.32;;;8.18;;
76409;SDS011;65238;42.662;23.280;2023-05-07T05:47:46;13.63;;;7.97;;
76409;SDS011;65238;42.662;23.280;2023-05-07T05:50:12;15.23;;;8.75;;
76409;SDS011;65238;42.662;23.280;2023-05-07T05:52:37;10.75;;;7.60;;
76409;SDS011;65238;42.662;23.280;2023-05-07T05:55:03;10.57;;;7.45;;
76409;SDS011;65238;42.662;23.280;2023-05-07T05:57:28;12.20;;;8.05;;
76409;SDS011;65238;42.662;23.280;2023-05-07T05:59:54;15.32;;;8.95;;
76409;SDS011;65238;42.662;23.280;2023-05-07T06:02:20;11.13;;;7.55;;
76409;SDS011;65238;42.662;23.280;2023-05-07T06:04:45;10.77;;;7.90;;
76409;SDS011;65238;42.662;23.280;2023-05-07T06:07:10;13.55;;;8.20;;
76409;SDS011;65238;42.662;23.280;2023-05-07T06:09:36;15.05;;;8.65;;
76409;SDS011;65238;42.662;23.280;2023-05-07T06:12:02;13.35;;;8.23;;
76409;SDS011;65238;42.662;23.280;2023-05-07T06:14:27;10.50;;;7.75;;
76409;SDS011;65238;42.662;23.280;2023-05-07T06:16:52;12.32;;;8.23;;
76409;SDS011;65238;42.662;23.280;2023-05-07T06:19:18;10.85;;;7.47;;
76409;SDS011;65238;42.662;23.280;2023-05-07T06:21:48;9.48;;;6.97;;
76409;SDS011;65238;42.662;23.280;2023-05-07T06:24:13;13.68;;;7.45;;
76409;SDS011;65238;42.662;23.280;2023-05-07T06:26:39;12.23;;;7.55;;
76409;SDS011;65238;42.662;23.280;2023-05-07T06:29:04;9.40;;;7.30;;
76409;SDS011;65238;42.662;23.280;2023-05-07T06:31:30;11.45;;;7.38;;
76409;SDS011;65238;42.662;23.280;2023-05-07T06:33:57;15.05;;;8.05;;
76409;SDS011;65238;42.662;23.280;2023-05-07T06:36:22;10.65;;;7.03;;
76409;SDS011;65238;42.662;23.280;2023-05-07T06:38:48;11.07;;;6.72;;
76409;SDS011;65238;42.662;23.280;2023-05-07T06:41:13;11.55;;;6.68;;
76409;SDS011;65238;42.662;23.280;2023-05-07T06:43:38;11.50;;;6.68;;
76409;SDS011;65238;42.662;23.280;2023-05-07T06:46:04;12.95;;;6.85;;
76409;SDS011;65238;42.662;23.280;2023-05-07T06:48:30;8.27;;;6.38;;
76409;SDS011;65238;42.662;23.280;2023-05-07T06:50:55;9.38;;;7.10;;
76409;SDS011;65238;42.662;23.280;2023-05-07T06:53:22;11.80;;;7.10;;
76409;SDS011;65238;42.662;23.280;2023-05-07T06:55:48;12.48;;;7.45;;
76409;SDS011;65238;42.662;23.280;2023-05-07T06:58:14;10.38;;;7.47;;
76409;SDS011;65238;42.662;23.280;2023-05-07T07:00:39;11.75;;;7.15;;
76409;SDS011;65238;42.662;23.280;2023-05-07T07:03:05;10.70;;;6.57;;
76409;SDS011;65238;42.662;23.280;2023-05-07T07:05:31;8.63;;;6.32;;
76409;SDS011;65238;42.662;23.280;2023-05-07T07:07:57;9.82;;;6.78;;
76409;SDS011;65238;42.662;23.280;2023-05-07T07:10:22;10.13;;;6.78;;
76409;SDS011;65238;42.662;23.280;2023-05-07T07:12:48;10.88;;;7.10;;
76409;SDS011;65238;42.662;23.280;2023-05-07T07:15:14;10.93;;;5.70;;
76409;SDS011;65238;42.662;23.280;2023-05-07T07:17:40;9.55;;;5.85;;
76409;SDS011;65238;42.662;23.280;2023-05-07T07:20:05;12.32;;;5.78;;
76409;SDS011;65238;42.662;23.280;2023-05-07T07:22:31;8.30;;;4.80;;
76409;SDS011;65238;42.662;23.280;2023-05-07T07:24:56;7.75;;;5.47;;
76409;SDS011;65238;42.662;23.280;2023-05-07T07:27:22;8.20;;;5.40;;
76409;SDS011;65238;42.662;23.280;2023-05-07T07:29:47;9.07;;;6.47;;
76409;SDS011;65238;42.662;23.280;2023-05-07T07:32:12;9.75;;;6.00;;
76409;SDS011;65238;42.662;23.280;2023-05-07T07:34:38;9.35;;;6.47;;
76409;SDS011;65238;42.662;23.280;2023-05-07T07:37:03;11.75;;;6.57;;
76409;SDS011;65238;42.662;23.280;2023-05-07T07:39:31;12.13;;;6.85;;
76409;SDS011;65238;42.662;23.280;2023-05-07T07:41:57;9.48;;;6.35;;
76409;SDS011;65238;42.662;23.280;2023-05-07T07:44:22;9.05;;;6.55;;
76409;SDS011;65238;42.662;23.280;2023-05-07T07:46:48;8.63;;;6.35;;
76409;SDS011;65238;42.662;23.280;2023-05-07T07:49:13;12.43;;;6.53;;
76409;SDS011;65238;42.662;23.280;2023-05-07T07:51:39;9.20;;;5.93;;
76409;SDS011;65238;42.662;23.280;2023-05-07T07:54:05;8.75;;;5.95;;
76409;SDS011;65238;42.662;23.280;2023-05-07T07:56:31;9.35;;;5.57;;
76409;SDS011;65238;42.662;23.280;2023-05-07T07:58:58;7.00;;;5.20;;
76409;SDS011;65238;42.662;23.280;2023-05-07T08:01:24;9.00;;;5.65;;
76409;SDS011;65238;42.662;23.280;2023-05-07T08:03:49;7.95;;;5.38;;
76409;SDS011;65238;42.662;23.280;2023-05-07T08:06:15;9.38;;;5.63;;
76409;SDS011;65238;42.662;23.280;2023-05-07T08:08:40;7.50;;;5.45;;
76409;SDS011;65238;42.662;23.280;2023-05-07T08:11:06;5.82;;;5.15;;
76409;SDS011;65238;42.662;23.280;2023-05-07T08:13:31;9.27;;;5.72;;
76409;SDS011;65238;42.662;23.280;2023-05-07T08:15:57;10.02;;;5.10;;
76409;SDS011;65238;42.662;23.280;2023-05-07T08:18:22;10.60;;;5.70;;
76409;SDS011;65238;42.662;23.280;2023-05-07T08:20:49;7.70;;;5.38;;
76409;SDS011;65238;42.662;23.280;2023-05-07T08:23:15;8.02;;;4.68;;
76409;SDS011;65238;42.662;23.280;2023-05-07T08:25:40;8.93;;;5.00;;
76409;SDS011;65238;42.662;23.280;2023-05-07T08:28:07;8.00;;;5.32;;
76409;SDS011;65238;42.662;23.280;2023-05-07T08:30:33;9.57;;;5.07;;
76409;SDS011;65238;42.662;23.280;2023-05-07T08:32:58;8.98;;;5.35;;
76409;SDS011;65238;42.662;23.280;2023-05-07T08:35:25;5.35;;;4.57;;
76409;SDS011;65238;42.662;23.280;2023-05-07T08:37:51;6.30;;;4.45;;
76409;SDS011;65238;42.662;23.280;2023-05-07T08:40:17;6.28;;;4.70;;
76409;SDS011;65238;42.662;23.280;2023-05-07T08:42:42;9.15;;;5.10;;
76409;SDS011;65238;42.662;23.280;2023-05-07T08:45:09;5.45;;;4.25;;
76409;SDS011;65238;42.662;23.280;2023-05-07T08:47:42;9.60;;;4.43;;
76409;SDS011;65238;42.662;23.280;2023-05-07T08:50:12;6.82;;;4.47;;
76409;SDS011;65238;42.662;23.280;2023-05-07T08:52:38;8.10;;;4.90;;
76409;SDS011;65238;42.662;23.280;2023-05-07T08:55:05;9.23;;;5.43;;
76409;SDS011;65238;42.662;23.280;2023-05-07T08:57:31;8.43;;;5.05;;
76409;SDS011;65238;42.662;23.280;2023-05-07T08:59:57;6.45;;;4.85;;
76409;SDS011;65238;42.662;23.280;2023-05-07T09:02:22;9.18;;;5.57;;
76409;SDS011;65238;42.662;23.280;2023-05-07T09:04:51;6.95;;;4.72;;
76409;SDS011;65238;42.662;23.280;2023-05-07T09:07:18;9.73;;;5.28;;
76409;SDS011;65238;42.662;23.280;2023-05-07T09:09:44;8.48;;;4.97;;
76409;SDS011;65238;42.662;23.280;2023-05-07T09:12:10;9.38;;;5.25;;
76409;SDS011;65238;42.662;23.280;2023-05-07T09:14:35;12.68;;;5.28;;
76409;SDS011;65238;42.662;23.280;2023-05-07T09:17:01;10.05;;;5.00;;
76409;SDS011;65238;42.662;23.280;2023-05-07T09:19:26;8.73;;;5.20;;
76409;SDS011;65238;42.662;23.280;2023-05-07T09:21:59;6.10;;;5.00;;
76409;SDS011;65238;42.662;23.280;2023-05-07T09:24:25;6.15;;;4.22;;
76409;SDS011;65238;42.662;23.280;2023-05-07T09:26:51;7.38;;;4.80;;
76409;SDS011;65238;42.662;23.280;2023-05-07T09:29:17;7.40;;;4.30;;
76409;SDS011;65238;42.662;23.280;2023-05-07T09:31:43;8.75;;;4.40;;
76409;SDS011;65238;42.662;23.280;2023-05-07T09:34:08;8.77;;;5.53;;
76409;SDS011;65238;42.662;23.280;2023-05-07T09:36:34;6.80;;;4.88;;
76409;SDS011;65238;42.662;23.280;2023-05-07T09:39:00;8.27;;;5.47;;
76409;SDS011;65238;42.662;23.280;2023-05-07T09:41:25;9.40;;;5.65;;
76409;SDS011;65238;42.662;23.280;2023-05-07T09:43:54;5.00;;;4.10;;
76409;SDS011;65238;42.662;23.280;2023-05-07T09:46:20;7.93;;;4.70;;
76409;SDS011;65238;42.662;23.280;2023-05-07T09:48:50;5.50;;;4.70;;
76409;SDS011;65238;42.662;23.280;2023-05-07T09:51:34;6.68;;;4.32;;
76409;SDS011;65238;42.662;23.280;2023-05-07T09:54:05;6.28;;;4.68;;
76409;SDS011;65238;42.662;23.280;2023-05-07T09:56:31;6.03;;;4.40;;
76409;SDS011;65238;42.662;23.280;2023-05-07T09:58:59;9.25;;;4.32;;
76409;SDS011;65238;42.662;23.280;2023-05-07T10:01:25;5.45;;;4.25;;
76409;SDS011;65238;42.662;23.280;2023-05-07T10:03:51;4.75;;;3.53;;
76409;SDS011;65238;42.662;23.280;2023-05-07T10:06:17;6.72;;;3.65;;
76409;SDS011;65238;42.662;23.280;2023-05-07T10:08:45;4.82;;;4.05;;
76409;SDS011;65238;42.662;23.280;2023-05-07T10:11:10;4.70;;;3.90;;
76409;SDS011;65238;42.662;23.280;2023-05-07T10:13:36;7.70;;;4.50;;
76409;SDS011;65238;42.662;23.280;2023-05-07T10:16:03;7.78;;;4.78;;
76409;SDS011;65238;42.662;23.280;2023-05-07T10:18:33;6.57;;;4.47;;
76409;SDS011;65238;42.662;23.280;2023-05-07T10:21:08;7.97;;;4.90;;
76409;SDS011;65238;42.662;23.280;2023-05-07T10:23:36;6.53;;;4.13;;
76409;SDS011;65238;42.662;23.280;2023-05-07T10:26:03;8.82;;;4.13;;
76409;SDS011;65238;42.662;23.280;2023-05-07T10:28:30;5.18;;;4.20;;
76409;SDS011;65238;42.662;23.280;2023-05-07T10:31:34;9.35;;;4.20;;
76409;SDS011;65238;42.662;23.280;2023-05-07T10:33:51;5.55;;;4.30;;
76409;SDS011;65238;42.662;23.280;2023-05-07T10:36:18;7.13;;;4.32;;
76409;SDS011;65238;42.662;23.280;2023-05-07T10:38:43;7.65;;;4.22;;
76409;SDS011;65238;42.662;23.280;2023-05-07T10:41:09;7.47;;;4.13;;
76409;SDS011;65238;42.662;23.280;2023-05-07T10:43:42;7.40;;;4.18;;
76409;SDS011;65238;42.662;23.280;2023-05-07T10:46:13;6.10;;;4.50;;
76409;SDS011;65238;42.662;23.280;2023-05-07T10:51:25;6.05;;;4.35;;
76409;SDS011;65238;42.662;23.280;2023-05-07T10:56:38;6.82;;;4.57;;
76409;SDS011;65238;42.662;23.280;2023-05-07T10:59:38;6.97;;;4.22;;
76409;SDS011;65238;42.662;23.280;2023-05-07T11:02:02;6.82;;;3.92;;
76409;SDS011;65238;42.662;23.280;2023-05-07T11:04:29;8.05;;;4.47;;
76409;SDS011;65238;42.662;23.280;2023-05-07T11:15:04;5.82;;;4.05;;
76409;SDS011;65238;42.662;23.280;2023-05-07T11:17:31;7.78;;;4.15;;
76409;SDS011;65238;42.662;23.280;2023-05-07T11:19:59;8.40;;;4.20;;
76409;SDS011;65238;42.662;23.280;2023-05-07T11:25:05;4.00;;;3.60;;
76409;SDS011;65238;42.662;23.280;2023-05-07T11:27:31;6.15;;;4.18;;
76409;SDS011;65238;42.662;23.280;2023-05-07T11:29:57;12.05;;;4.38;;
76409;SDS011;65238;42.662;23.280;2023-05-07T11:32:28;4.85;;;3.90;;
76409;SDS011;65238;42.662;23.280;2023-05-07T11:34:55;4.13;;;3.53;;
76409;SDS011;65238;42.662;23.280;2023-05-07T11:37:21;5.82;;;3.65;;
76409;SDS011;65238;42.662;23.280;2023-05-07T11:39:47;3.13;;;2.80;;
76409;SDS011;65238;42.662;23.280;2023-05-07T11:44:52;4.72;;;3.53;;
76409;SDS011;65238;42.662;23.280;2023-05-07T11:47:18;10.27;;;3.65;;
76409;SDS011;65238;42.662;23.280;2023-05-07T11:49:47;4.43;;;3.80;;
76409;SDS011;65238;42.662;23.280;2023-05-07T11:52:14;6.03;;;3.92;;
76409;SDS011;65238;42.662;23.280;2023-05-07T11:54:40;5.55;;;3.30;;
76409;SDS011;65238;42.662;23.280;2023-05-07T11:57:05;9.27;;;6.43;;
76409;SDS011;65238;42.662;23.280;2023-05-07T11:59:38;5.65;;;3.70;;
76409;SDS011;65238;42.662;23.280;2023-05-07T12:02:05;5.97;;;3.80;;
76409;SDS011;65238;42.662;23.280;2023-05-07T12:04:31;4.88;;;3.03;;
76409;SDS011;65238;42.662;23.280;2023-05-07T12:06:56;4.85;;;3.42;;
76409;SDS011;65238;42.662;23.280;2023-05-07T12:09:22;5.45;;;3.67;;
76409;SDS011;65238;42.662;23.280;2023-05-07T12:11:48;4.88;;;3.70;;
76409;SDS011;65238;42.662;23.280;2023-05-07T12:14:13;4.55;;;3.63;;
76409;SDS011;65238;42.662;23.280;2023-05-07T12:16:40;4.82;;;3.08;;
76409;SDS011;65238;42.662;23.280;2023-05-07T12:19:06;6.65;;;3.50;;
76409;SDS011;65238;42.662;23.280;2023-05-07T12:21:33;4.22;;;3.60;;
76409;SDS011;65238;42.662;23.280;2023-05-07T12:23:59;5.25;;;3.72;;
76409;SDS011;65238;42.662;23.280;2023-05-07T12:26:25;5.60;;;3.35;;
76409;SDS011;65238;42.662;23.280;2023-05-07T12:28:50;3.90;;;3.40;;
76409;SDS011;65238;42.662;23.280;2023-05-07T12:31:17;6.60;;;3.75;;
76409;SDS011;65238;42.662;23.280;2023-05-07T12:33:42;4.20;;;3.50;;
76409;SDS011;65238;42.662;23.280;2023-05-07T12:36:08;5.13;;;3.63;;
76409;SDS011;65238;42.662;23.280;2023-05-07T12:38:37;5.07;;;3.40;;
76409;SDS011;65238;42.662;23.280;2023-05-07T12:41:03;4.47;;;3.58;;
76409;SDS011;65238;42.662;23.280;2023-05-07T12:43:29;6.07;;;3.38;;
76409;SDS011;65238;42.662;23.280;2023-05-07T12:45:55;3.70;;;3.30;;
76409;SDS011;65238;42.662;23.280;2023-05-07T12:48:22;6.22;;;3.17;;
76409;SDS011;65238;42.662;23.280;2023-05-07T12:50:51;5.75;;;3.10;;
76409;SDS011;65238;42.662;23.280;2023-05-07T12:55:46;5.45;;;2.55;;
76409;SDS011;65238;42.662;23.280;2023-05-07T12:58:26;3.42;;;3.00;;
76409;SDS011;65238;42.662;23.280;2023-05-07T13:00:53;5.78;;;3.72;;
76409;SDS011;65238;42.662;23.280;2023-05-07T13:03:23;7.25;;;3.25;;
76409;SDS011;65238;42.662;23.280;2023-05-07T13:05:49;4.50;;;3.13;;
76409;SDS011;65238;42.662;23.280;2023-05-07T13:08:23;4.25;;;2.90;;
76409;SDS011;65238;42.662;23.280;2023-05-07T13:10:49;4.38;;;3.20;;
76409;SDS011;65238;42.662;23.280;2023-05-07T13:13:15;4.15;;;2.97;;
76409;SDS011;65238;42.662;23.280;2023-05-07T13:15:40;3.67;;;2.80;;
76409;SDS011;65238;42.662;23.280;2023-05-07T13:18:05;5.88;;;2.75;;
76409;SDS011;65238;42.662;23.280;2023-05-07T13:20:31;4.32;;;3.05;;
76409;SDS011;65238;42.662;23.280;2023-05-07T13:22:57;9.57;;;3.47;;
76409;SDS011;65238;42.662;23.280;2023-05-07T13:25:22;3.85;;;3.08;;
76409;SDS011;65238;42.662;23.280;2023-05-07T13:27:47;4.28;;;3.20;;
76409;SDS011;65238;42.662;23.280;2023-05-07T13:30:13;6.85;;;3.65;;
76409;SDS011;65238;42.662;23.280;2023-05-07T13:32:38;4.82;;;2.95;;
76409;SDS011;65238;42.662;23.280;2023-05-07T13:35:04;3.38;;;3.08;;
76409;SDS011;65238;42.662;23.280;2023-05-07T13:37:29;5.32;;;2.80;;
76409;SDS011;65238;42.662;23.280;2023-05-07T13:39:55;6.70;;;3.33;;
76409;SDS011;65238;42.662;23.280;2023-05-07T13:42:20;6.32;;;3.15;;
76409;SDS011;65238;42.662;23.280;2023-05-07T13:44:46;3.72;;;2.80;;
76409;SDS011;65238;42.662;23.280;2023-05-07T13:47:11;3.25;;;2.95;;
76409;SDS011;65238;42.662;23.280;2023-05-07T13:49:36;3.78;;;2.92;;
76409;SDS011;65238;42.662;23.280;2023-05-07T13:52:02;4.22;;;3.58;;
76409;SDS011;65238;42.662;23.280;2023-05-07T13:54:28;4.50;;;3.10;;
76409;SDS011;65238;42.662;23.280;2023-05-07T13:56:53;4.68;;;2.92;;
76409;SDS011;65238;42.662;23.280;2023-05-07T13:59:19;3.58;;;2.72;;
76409;SDS011;65238;42.662;23.280;2023-05-07T14:01:44;5.93;;;3.08;;
76409;SDS011;65238;42.662;23.280;2023-05-07T14:04:09;5.15;;;3.10;;
76409;SDS011;65238;42.662;23.280;2023-05-07T14:06:35;4.00;;;3.20;;
76409;SDS011;65238;42.662;23.280;2023-05-07T14:09:01;3.92;;;3.25;;
76409;SDS011;65238;42.662;23.280;2023-05-07T14:11:27;5.63;;;2.92;;
76409;SDS011;65238;42.662;23.280;2023-05-07T14:13:52;3.63;;;3.05;;
76409;SDS011;65238;42.662;23.280;2023-05-07T14:16:17;10.23;;;7.82;;
76409;SDS011;65238;42.662;23.280;2023-05-07T14:18:43;6.13;;;4.45;;
76409;SDS011;65238;42.662;23.280;2023-05-07T14:21:08;4.07;;;3.30;;
76409;SDS011;65238;42.662;23.280;2023-05-07T14:23:34;4.10;;;2.95;;
76409;SDS011;65238;42.662;23.280;2023-05-07T14:26:00;4.07;;;3.30;;
76409;SDS011;65238;42.662;23.280;2023-05-07T14:28:25;3.75;;;3.22;;
76409;SDS011;65238;42.662;23.280;2023-05-07T14:30:50;3.97;;;3.20;;
76409;SDS011;65238;42.662;23.280;2023-05-07T14:33:16;6.40;;;3.25;;
76409;SDS011;65238;42.662;23.280;2023-05-07T14:35:42;3.47;;;3.17;;
76409;SDS011;65238;42.662;23.280;2023-05-07T14:38:12;2.90;;;2.70;;
76409;SDS011;65238;42.662;23.280;2023-05-07T14:40:37;5.00;;;2.97;;
76409;SDS011;65238;42.662;23.280;2023-05-07T14:43:03;5.63;;;3.20;;